Great Hebei — VRFU6 — position and weather

sailwx.info

Track history (hours):
 
Tides and Currents Weather Stations Pressure Air Temp Water Temp Dewpoint Dewpoint Depression Visibility Wind Speed Wind Dir Waves Ship Positions

Great Hebei

Last reported at 2017-Feb-13 07:18 UTC. Time now 2017-Feb-19 16:52 UTC.
Position N 01°15' E 104°05'.

Length 295 m; draft 18.6 m.

Type: Cargo ship. MMSI: 477617100.

Date/timePositionNaut miles runAvg speedWind from/ knotsBaromVisibWave heightAir tempDewpointWater temp
2017-Feb-13 07:18N 01°15' E 104°05'7 9.9
2017-Feb-13 06:33N 01°14' E 103°58'9 9.1
2017-Feb-13 05:33N 01°11' E 103°49'8 8.4
2017-Feb-13 04:33N 01°05' E 103°43'8 7.7
2017-Feb-13 03:30N 01°05' E 103°35'8 8.9
2017-Feb-13 02:33N 01°09' E 103°27'9 8.2
2017-Feb-13 01:30N 01°14' E 103°20'  
2017-Feb-04 09:13N 01°12' E 103°52'7 9.6
2017-Feb-04 08:29N 01°15' E 103°58'  
Track history (hours):
 
Tides and Currents Weather Stations Pressure Air Temp Water Temp Dewpoint Dewpoint Depression Visibility Wind Speed Wind Dir Waves Ship Positions

Great Hebei

Last reported at 2017-Feb-13 07:18 UTC. Time now 2017-Feb-19 16:52 UTC.
Position N 01°15' E 104°05'.

Length 295 m; draft 18.6 m.

Type: Cargo ship. MMSI: 477617100.

Date/timePositionNaut miles runAvg speedWind from/ knotsBaromVisibWave heightAir tempDewpointWater temp
2017-Feb-13 07:18N 01°15' E 104°05'7 9.9
2017-Feb-13 06:33N 01°14' E 103°58'9 9.1
2017-Feb-13 05:33N 01°11' E 103°49'8 8.4
2017-Feb-13 04:33N 01°05' E 103°43'8 7.7
2017-Feb-13 03:30N 01°05' E 103°35'8 8.9
2017-Feb-13 02:33N 01°09' E 103°27'9 8.2
2017-Feb-13 01:30N 01°14' E 103°20'  
2017-Feb-04 09:13N 01°12' E 103°52'7 9.6
2017-Feb-04 08:29N 01°15' E 103°58'  

Dump ship's entire track history